createdAt,value
2023-05-18T00:02:26.446Z,98084.44
2023-05-18T00:05:12.272Z,98142.59
2023-05-18T00:07:57.538Z,98110.41
2023-05-18T00:10:43.023Z,98137.59
2023-05-18T00:13:28.330Z,98078.03
2023-05-18T00:16:15.944Z,98199.88
2023-05-18T00:19:02.617Z,98069.81
2023-05-18T00:21:48.578Z,98089.13
2023-05-18T00:24:36.874Z,98205.69
2023-05-18T00:27:22.587Z,98219.56
2023-05-18T00:30:08.294Z,98063.75
2023-05-18T00:32:54.950Z,98056.72
2023-05-18T00:35:40.912Z,98150.56
2023-05-18T00:38:26.377Z,98231.69
2023-05-18T00:41:11.712Z,98231.19
2023-05-18T00:43:58.915Z,98136.63
2023-05-18T00:46:44.530Z,98086.59
2023-05-18T00:49:29.996Z,98093.31
2023-05-18T00:52:16.264Z,98079.50
2023-05-18T00:55:02.242Z,98216.81
2023-05-18T00:57:48.269Z,98234.13
2023-05-18T01:00:37.588Z,98255.72
2023-05-18T01:03:23.510Z,98113.09
2023-05-18T01:06:10.356Z,98216.13
2023-05-18T01:08:56.027Z,98088.03
2023-05-18T01:12:06.052Z,98226.47
2023-05-18T01:15:08.831Z,98094.38
2023-05-18T01:18:34.252Z,98273.88
2023-05-18T01:21:50.568Z,98290.19
2023-05-18T01:24:58.043Z,98253.56
2023-05-18T01:27:46.612Z,98125.72
2023-05-18T01:30:36.124Z,98281.00
2023-05-18T01:33:21.702Z,98223.97
2023-05-18T01:36:07.945Z,98303.81
2023-05-18T01:38:55.529Z,98139.28
2023-05-18T01:42:06.838Z,98310.16
2023-05-18T01:44:56.653Z,98296.06
2023-05-18T01:47:45.211Z,98292.66
2023-05-18T01:50:37.963Z,98262.94
2023-05-18T01:53:27.963Z,98159.19
2023-05-18T01:56:14.524Z,98303.63
2023-05-18T01:59:00.690Z,98128.41
2023-05-18T02:01:46.205Z,98224.44
2023-05-18T02:04:35.256Z,98152.88
2023-05-18T02:07:20.708Z,98145.63
2023-05-18T02:10:07.528Z,98158.22
2023-05-18T02:12:53.938Z,98152.41
2023-05-18T02:15:39.867Z,98152.66
2023-05-18T02:18:26.865Z,98178.84
2023-05-18T02:21:13.721Z,98276.69
2023-05-18T02:23:59.333Z,98227.88
2023-05-18T02:26:44.859Z,98277.41
2023-05-18T02:29:31.428Z,98175.94
2023-05-18T02:32:16.796Z,98221.81
2023-05-18T02:35:08.475Z,98333.50
2023-05-18T02:37:55.959Z,98336.66
2023-05-18T02:40:43.032Z,98296.09
2023-05-18T02:43:28.516Z,98178.13
2023-05-18T02:46:14.425Z,98247.81
2023-05-18T02:48:59.842Z,98342.75
2023-05-18T02:51:45.026Z,98347.03
2023-05-18T02:54:32.050Z,98354.16
2023-05-18T02:57:18.370Z,98187.00
2023-05-18T03:00:16.939Z,98373.50
2023-05-18T03:03:04.452Z,98308.00
2023-05-18T03:05:52.929Z,98145.06
2023-05-18T03:08:41.251Z,98018.13
2023-05-18T03:11:28.403Z,98353.09
2023-05-18T03:14:14.108Z,98348.59
2023-05-18T03:17:00.516Z,98370.47
2023-05-18T03:19:46.523Z,98241.34
2023-05-18T03:22:31.887Z,98229.66
2023-05-18T03:25:17.250Z,98335.69
2023-05-18T03:28:05.783Z,98388.19
2023-05-18T03:30:51.635Z,98187.47
2023-05-18T03:33:37.170Z,98333.84
2023-05-18T03:36:23.065Z,98368.25
2023-05-18T03:39:08.588Z,98289.25
2023-05-18T03:41:54.179Z,98378.91
2023-05-18T03:44:39.450Z,98382.53
2023-05-18T03:47:25.242Z,98271.22
2023-05-18T03:50:11.166Z,98376.69
2023-05-18T03:52:56.930Z,98361.16
2023-05-18T03:55:43.270Z,98282.44
2023-05-18T03:58:29.297Z,98392.13
2023-05-18T04:01:18.753Z,98188.72
2023-05-18T04:04:04.736Z,98219.34
2023-05-18T04:06:53.680Z,98332.25
2023-05-18T04:09:39.592Z,98416.97
2023-05-18T04:12:25.516Z,98420.63
2023-05-18T04:15:14.788Z,98417.44
2023-05-18T04:18:02.119Z,98256.91
2023-05-18T04:20:47.522Z,98295.09
2023-05-18T04:23:38.882Z,98423.41
2023-05-18T04:26:25.002Z,98428.75
2023-05-18T04:29:10.951Z,98269.22
2023-05-18T04:32:00.936Z,98438.59
2023-05-18T04:34:49.692Z,98338.16
2023-05-18T04:37:35.510Z,98282.81
2023-05-18T04:40:22.733Z,98448.03
2023-05-18T04:43:10.231Z,98367.69
2023-05-18T04:45:58.171Z,98350.50
2023-05-18T04:48:44.230Z,98294.22
2023-05-18T04:51:30.583Z,98461.31
2023-05-18T04:54:17.472Z,98460.13
2023-05-18T04:57:03.674Z,98459.25
2023-05-18T04:59:49.223Z,98390.44
2023-05-18T05:02:34.740Z,98464.69
2023-05-18T05:05:21.394Z,98399.56
2023-05-18T05:08:07.361Z,98291.25
2023-05-18T05:10:52.437Z,98459.94
2023-05-18T05:13:38.281Z,98456.16
2023-05-18T05:16:23.812Z,98322.97
2023-05-18T05:19:09.424Z,98435.44
2023-05-18T05:21:55.105Z,98390.31
2023-05-18T05:24:40.542Z,98504.66
2023-05-18T05:27:26.310Z,98466.38
2023-05-18T05:30:12.287Z,98494.34
2023-05-18T05:32:59.860Z,98485.97
2023-05-18T05:35:46.573Z,98482.34
2023-05-18T05:38:32.990Z,98421.47
2023-05-18T05:41:19.600Z,98298.78
2023-05-18T05:44:05.077Z,98472.34
2023-05-18T05:46:50.601Z,98319.75
2023-05-18T05:49:36.814Z,98311.09
2023-05-18T05:52:22.612Z,98497.72
2023-05-18T05:55:07.986Z,98357.56
2023-05-18T05:57:55.168Z,98430.47
2023-05-18T06:00:40.745Z,98474.09
2023-05-18T06:03:26.804Z,98496.34
2023-05-18T06:06:13.501Z,98428.09
2023-05-18T06:08:59.620Z,98343.47
2023-05-18T06:11:44.976Z,98523.78
2023-05-18T06:14:30.914Z,98522.06
2023-05-18T06:17:16.649Z,98378.22
2023-05-18T06:20:04.485Z,98518.59
2023-05-18T06:22:49.866Z,98533.28
2023-05-18T06:26:04.294Z,98373.47
2023-05-18T06:28:49.873Z,98510.09
2023-05-18T06:31:59.261Z,98548.72
2023-05-18T06:34:56.634Z,98550.94
2023-05-18T06:37:42.577Z,98549.72
2023-05-18T06:40:28.730Z,98551.16
2023-05-18T06:43:13.975Z,98564.59
2023-05-18T06:46:08.115Z,98381.97
2023-05-18T06:48:58.486Z,98417.25
2023-05-18T06:51:43.953Z,98550.19
2023-05-18T06:54:30.679Z,98559.09
2023-05-18T06:57:18.289Z,98430.16
2023-05-18T07:00:07.176Z,98528.25
2023-05-18T07:02:53.699Z,98579.78
2023-05-18T07:05:39.927Z,98441.59
2023-05-18T07:08:25.924Z,98373.97
2023-05-18T07:11:11.119Z,98590.06
2023-05-18T07:13:56.618Z,98597.53
2023-05-18T07:16:44.042Z,98644.47
2023-05-18T07:19:29.360Z,98425.78
2023-05-18T07:22:14.829Z,98577.19
2023-05-18T07:25:00.821Z,98575.75
2023-05-18T07:27:46.448Z,98618.84
2023-05-18T07:30:32.115Z,98430.75
2023-05-18T07:33:17.589Z,98457.25
2023-05-18T07:36:03.680Z,98588.81
2023-05-18T07:38:54.866Z,98626.19
2023-05-18T07:41:40.399Z,98482.88
2023-05-18T07:44:25.831Z,98634.69
2023-05-18T07:47:11.748Z,98628.06
2023-05-18T07:49:57.111Z,98446.84
2023-05-18T07:52:42.526Z,98601.56
2023-05-18T07:55:27.889Z,98621.06
2023-05-18T07:58:13.513Z,98642.03
2023-05-18T08:00:59.179Z,98647.31
2023-05-18T08:03:44.595Z,98631.91
2023-05-18T08:06:30.471Z,98529.44
2023-05-18T08:09:15.943Z,98606.56
2023-05-18T08:12:01.884Z,98643.91
2023-05-18T08:14:47.132Z,98655.78
2023-05-18T08:17:32.361Z,98485.03
2023-05-18T08:20:18.125Z,98659.91
2023-05-18T08:23:03.445Z,98494.84
2023-05-18T08:25:48.780Z,98675.16
2023-05-18T08:28:34.508Z,98483.25
2023-05-18T08:31:20.247Z,98491.44
2023-05-18T08:34:06.479Z,98488.63
2023-05-18T08:36:52.578Z,98539.94
2023-05-18T08:39:38.317Z,98525.88
2023-05-18T08:42:46.077Z,98649.34
2023-05-18T08:45:48.711Z,98492.75
2023-05-18T08:48:36.450Z,98625.59
2023-05-18T08:51:22.729Z,98593.91
2023-05-18T08:54:10.772Z,98611.94
2023-05-18T08:56:57.195Z,98515.38
2023-05-18T08:59:44.479Z,98660.63
2023-05-18T09:02:33.556Z,98637.31
2023-05-18T09:05:21.204Z,98648.19
2023-05-18T09:08:07.701Z,98496.44
2023-05-18T09:10:58.440Z,98644.66
2023-05-18T09:13:44.925Z,98689.81
2023-05-18T09:16:30.696Z,98520.16
2023-05-18T09:19:16.486Z,98611.63
2023-05-18T09:22:02.318Z,98631.09
2023-05-18T09:24:49.124Z,98504.22
2023-05-18T09:27:34.497Z,98658.50
2023-05-18T09:30:20.051Z,98642.50
2023-05-18T09:33:05.428Z,98678.88
2023-05-18T09:35:51.887Z,98509.56
2023-05-18T09:38:39.354Z,98539.13
2023-05-18T09:41:27.251Z,98681.97
2023-05-18T09:44:12.788Z,98542.09
2023-05-18T09:46:58.438Z,98708.44
2023-05-18T09:49:43.735Z,98635.97
2023-05-18T09:52:29.979Z,98609.03
2023-05-18T09:55:20.062Z,98695.66
2023-05-18T09:58:08.103Z,98533.50
2023-05-18T10:00:56.990Z,98521.66
2023-05-18T10:03:45.174Z,98695.22
2023-05-18T10:06:31.772Z,98706.25
2023-05-18T10:09:17.886Z,98705.50
2023-05-18T10:12:03.403Z,98703.28
2023-05-18T10:14:49.467Z,98704.31
2023-05-18T10:17:37.828Z,98698.16
2023-05-18T10:20:24.548Z,98704.47
2023-05-18T10:23:11.890Z,98536.75
2023-05-18T10:25:58.066Z,98691.66
2023-05-18T10:28:47.582Z,98628.94
2023-05-18T10:31:37.295Z,98621.78
2023-05-18T10:34:24.702Z,98529.75
2023-05-18T10:37:12.109Z,98564.97
2023-05-18T10:40:00.196Z,98713.06
2023-05-18T10:42:46.641Z,98720.50
2023-05-18T10:45:36.036Z,98679.78
2023-05-18T10:48:23.252Z,98739.63
2023-05-18T10:51:09.144Z,98573.78
2023-05-18T10:53:56.234Z,98681.97
2023-05-18T10:56:46.917Z,98718.31
2023-05-18T10:59:33.248Z,98719.78
2023-05-18T11:02:20.562Z,98675.28
2023-05-18T11:05:07.477Z,98711.72
2023-05-18T11:08:05.795Z,98533.22
2023-05-18T11:11:00.346Z,98692.16
2023-05-18T11:13:49.754Z,98552.00
2023-05-18T11:16:36.746Z,98699.66
2023-05-18T11:19:26.418Z,98697.13
2023-05-18T11:22:12.720Z,98549.66
2023-05-18T11:24:58.061Z,98545.25
2023-05-18T11:27:43.592Z,98422.41
2023-05-18T11:30:45.005Z,98681.81
2023-05-18T11:33:30.831Z,98549.50
2023-05-18T11:36:23.298Z,98673.78
2023-05-18T11:39:11.078Z,98558.97
2023-05-18T11:42:01.451Z,98743.69
2023-05-18T11:44:56.770Z,98608.09
2023-05-18T11:47:42.382Z,98567.97
2023-05-18T11:50:31.215Z,98674.16
2023-05-18T11:53:17.429Z,98727.78
2023-05-18T11:56:02.953Z,98567.97
2023-05-18T11:59:12.719Z,98750.44
2023-05-18T12:02:01.236Z,98567.97
2023-05-18T12:04:50.609Z,98690.13
2023-05-18T12:07:37.189Z,98733.72
2023-05-18T12:10:23.172Z,98608.94
2023-05-18T12:13:09.144Z,98629.50
2023-05-18T12:15:58.834Z,98576.19
2023-05-18T12:18:52.800Z,98602.72
2023-05-18T12:21:38.380Z,98789.22
2023-05-18T12:24:23.683Z,98567.31
2023-05-18T12:27:11.639Z,98793.78
2023-05-18T12:29:57.475Z,98762.16
2023-05-18T12:32:48.511Z,98581.19
2023-05-18T12:35:34.263Z,98768.47
2023-05-18T12:38:20.198Z,98573.84
2023-05-18T12:41:06.632Z,98764.38
2023-05-18T12:43:55.144Z,98649.41
2023-05-18T12:46:43.215Z,98771.41
2023-05-18T12:49:28.719Z,98601.63
2023-05-18T12:52:16.645Z,98818.75
2023-05-18T12:55:04.905Z,98795.63
2023-05-18T12:58:02.098Z,98817.31
2023-05-18T13:00:48.586Z,98758.63
2023-05-18T13:03:35.162Z,98618.47
2023-05-18T13:06:20.746Z,98795.66
2023-05-18T13:09:12.310Z,98608.19
2023-05-18T13:12:07.838Z,98822.66
2023-05-18T13:14:53.683Z,98628.31
2023-05-18T13:17:48.528Z,98802.69
2023-05-18T13:20:53.014Z,98801.56
2023-05-18T13:23:39.466Z,98803.75
2023-05-18T13:26:25.605Z,98656.53
2023-05-18T13:29:11.161Z,98653.00
2023-05-18T13:31:56.790Z,98802.06
2023-05-18T13:34:43.099Z,98652.69
2023-05-18T13:37:28.544Z,98821.69
2023-05-18T13:40:14.310Z,98633.41
2023-05-18T13:43:00.509Z,98811.53
2023-05-18T13:45:47.339Z,98818.81
2023-05-18T13:48:32.801Z,98816.50
2023-05-18T13:51:18.343Z,98805.88
2023-05-18T13:54:04.468Z,98779.91
2023-05-18T13:56:50.150Z,98559.59
2023-05-18T13:59:35.610Z,98824.31
2023-05-18T14:02:21.979Z,98825.56
2023-05-18T14:05:10.943Z,98831.88
2023-05-18T14:07:56.911Z,98790.72
2023-05-18T14:10:42.512Z,98769.78
2023-05-18T14:13:28.414Z,98686.81
2023-05-18T14:16:13.948Z,98805.72
2023-05-18T14:18:59.197Z,98814.41
2023-05-18T14:21:44.538Z,98815.41
2023-05-18T14:24:29.683Z,98722.44
2023-05-18T14:27:15.529Z,98835.34
2023-05-18T14:31:36.423Z,98826.41
2023-05-18T14:34:22.342Z,98788.94
2023-05-18T14:37:07.728Z,98827.00
2023-05-18T14:39:53.207Z,98821.28
2023-05-18T14:42:38.517Z,98658.47
2023-05-18T14:45:24.096Z,98707.66
2023-05-18T14:48:10.842Z,98804.31
2023-05-18T14:50:56.711Z,98665.44
2023-05-18T14:53:43.370Z,98829.78
2023-05-18T14:56:29.897Z,98817.69
2023-05-18T14:59:15.671Z,98846.94
2023-05-18T15:02:01.275Z,98676.84
2023-05-18T15:04:46.603Z,98678.50
2023-05-18T15:07:31.923Z,98777.00
2023-05-18T15:10:17.300Z,98762.16
2023-05-18T15:13:02.839Z,98795.91
2023-05-18T15:15:49.492Z,98820.72
2023-05-18T15:18:34.862Z,98669.50
2023-05-18T15:21:20.584Z,98825.91
2023-05-18T15:24:06.540Z,98798.13
2023-05-18T15:26:52.022Z,98667.44
2023-05-18T15:29:37.782Z,98847.47
2023-05-18T15:32:23.823Z,98806.25
2023-05-18T15:35:10.124Z,98815.69
2023-05-18T15:37:56.766Z,98854.97
2023-05-18T15:40:46.691Z,98797.22
2023-05-18T15:43:32.252Z,98679.84
2023-05-18T15:46:18.808Z,98680.78
2023-05-18T15:49:04.246Z,98818.94
2023-05-18T15:51:49.740Z,98675.06
2023-05-18T15:54:36.415Z,98839.78
2023-05-18T15:57:22.396Z,98808.28
2023-05-18T16:00:08.610Z,98845.19
2023-05-18T16:03:00.556Z,98694.47
2023-05-18T16:05:46.444Z,98847.72
2023-05-18T16:08:32.215Z,98664.38
2023-05-18T16:11:18.472Z,98861.34
2023-05-18T16:14:05.222Z,98732.34
2023-05-18T16:16:51.016Z,98730.53
2023-05-18T16:19:36.936Z,98696.34
2023-05-18T16:22:22.766Z,98786.19
2023-05-18T16:25:09.323Z,98862.03
2023-05-18T16:27:54.919Z,98841.25
2023-05-18T16:30:41.248Z,98850.25
2023-05-18T16:33:28.118Z,98793.59
2023-05-18T16:36:14.346Z,98808.16
2023-05-18T16:39:02.900Z,98862.16
2023-05-18T16:41:48.263Z,98783.38
2023-05-18T16:44:34.724Z,98683.72
2023-05-18T16:47:22.918Z,98880.63
2023-05-18T16:50:09.532Z,98825.59
2023-05-18T16:52:55.002Z,98706.78
2023-05-18T16:55:44.418Z,98870.31
2023-05-18T16:58:31.312Z,98794.81
2023-05-18T17:01:27.194Z,98890.25
2023-05-18T17:04:14.150Z,98813.78
2023-05-18T17:07:00.309Z,98887.81
2023-05-18T17:09:46.168Z,98898.00
2023-05-18T17:12:32.427Z,98728.56
2023-05-18T17:15:18.437Z,98875.94
2023-05-18T17:18:05.265Z,98898.09
2023-05-18T17:20:51.566Z,98912.19
2023-05-18T17:23:36.956Z,98902.03
2023-05-18T17:26:22.950Z,98899.31
2023-05-18T17:29:09.845Z,98872.22
2023-05-18T17:31:55.903Z,98809.44
2023-05-18T17:34:41.585Z,98877.25
2023-05-18T17:37:27.832Z,98760.06
2023-05-18T17:40:13.576Z,98730.97
2023-05-18T17:42:59.441Z,98898.69
2023-05-18T17:45:45.037Z,98921.66
2023-05-18T17:48:30.524Z,98737.09
2023-05-18T17:51:16.334Z,98742.81
2023-05-18T17:54:01.734Z,98917.97
2023-05-18T17:56:47.317Z,98943.13
2023-05-18T17:59:32.935Z,98886.84
2023-05-18T18:02:18.311Z,98929.44
2023-05-18T18:05:04.539Z,98862.66
2023-05-18T18:07:49.962Z,98765.13
2023-05-18T18:10:35.731Z,98935.34
2023-05-18T18:13:21.279Z,98804.59
2023-05-18T18:16:06.836Z,98813.44
2023-05-18T18:18:52.399Z,98947.53
2023-05-18T18:21:37.748Z,98789.13
2023-05-18T18:24:23.743Z,98981.94
2023-05-18T18:27:10.447Z,98762.00
2023-05-18T18:29:56.394Z,98824.31
2023-05-18T18:32:41.703Z,98918.03
2023-05-18T18:35:27.140Z,98874.50
2023-05-18T18:38:15.237Z,98978.44
2023-05-18T18:41:04.364Z,99000.41
2023-05-18T18:43:54.068Z,98926.94
2023-05-18T18:46:40.273Z,98985.97
2023-05-18T18:49:26.521Z,98827.09
2023-05-18T18:52:13.882Z,98981.13
2023-05-18T18:54:59.866Z,98853.47
2023-05-18T18:57:45.671Z,98995.88
2023-05-18T19:00:31.668Z,98933.19
2023-05-18T19:03:17.199Z,98970.22
2023-05-18T19:06:02.580Z,98855.66
2023-05-18T19:08:47.906Z,98849.56
2023-05-18T19:11:33.200Z,98836.84
2023-05-18T19:14:18.640Z,98838.66
2023-05-18T19:17:04.372Z,99003.19
2023-05-18T19:19:52.197Z,98871.50
2023-05-18T19:22:37.674Z,99000.69
2023-05-18T19:25:24.643Z,98970.00
2023-05-18T19:28:12.213Z,99012.78
2023-05-18T19:30:57.988Z,98917.03
2023-05-18T19:33:43.595Z,99015.81
2023-05-18T19:36:29.340Z,98874.09
2023-05-18T19:39:20.436Z,99022.75
2023-05-18T19:42:08.265Z,99017.41
2023-05-18T19:44:56.472Z,99026.47
2023-05-18T19:47:42.419Z,99023.53
2023-05-18T19:50:29.230Z,99003.63
2023-05-18T19:53:14.737Z,98847.94
2023-05-18T19:56:01.258Z,99026.94
2023-05-18T19:58:47.103Z,98954.63
2023-05-18T20:01:32.580Z,98971.41
2023-05-18T20:04:23.666Z,98984.50
2023-05-18T20:07:09.742Z,99000.72
2023-05-18T20:09:55.304Z,98841.28
2023-05-18T20:12:40.717Z,99018.13
2023-05-18T20:15:27.993Z,98833.56
2023-05-18T20:18:13.234Z,98907.53
2023-05-18T20:21:02.065Z,98997.47
2023-05-18T20:23:48.169Z,98806.28
2023-05-18T20:26:34.265Z,98962.38
2023-05-18T20:29:19.973Z,98968.31
2023-05-18T20:32:07.875Z,98989.34
2023-05-18T20:34:53.167Z,99003.75
2023-05-18T20:37:41.495Z,98994.16
2023-05-18T20:40:30.822Z,98867.50
2023-05-18T20:43:17.861Z,98815.81
2023-05-18T20:46:08.098Z,99011.53
2023-05-18T20:48:55.255Z,99004.69
2023-05-18T20:51:41.469Z,98809.56
2023-05-18T20:54:28.166Z,98845.72
2023-05-18T20:57:14.279Z,99014.50
2023-05-18T20:59:59.579Z,98841.09
2023-05-18T21:02:46.704Z,98995.44
2023-05-18T21:05:33.347Z,98853.28
2023-05-18T21:08:18.864Z,98913.28
2023-05-18T21:11:04.208Z,98946.88
2023-05-18T21:13:49.636Z,99020.41
2023-05-18T21:16:35.117Z,98931.69
2023-05-18T21:19:21.080Z,98878.91
2023-05-18T21:22:06.373Z,99037.22
2023-05-18T21:24:51.678Z,98936.88
2023-05-18T21:27:37.369Z,98850.50
2023-05-18T21:30:23.039Z,98948.72
2023-05-18T21:33:08.651Z,99028.88
2023-05-18T21:35:54.330Z,98965.91
2023-05-18T21:38:39.592Z,98980.47
2023-05-18T21:41:24.966Z,99035.31
2023-05-18T21:44:10.720Z,99020.38
2023-05-18T21:46:57.955Z,99027.75
2023-05-18T21:49:44.249Z,98991.91
2023-05-18T21:52:30.556Z,98868.16
2023-05-18T21:55:16.278Z,98892.53
2023-05-18T21:58:01.468Z,99044.19
2023-05-18T22:00:47.039Z,99042.34
2023-05-18T22:03:32.395Z,99035.16
2023-05-18T22:06:18.062Z,98871.16
2023-05-18T22:09:04.272Z,98943.91
2023-05-18T22:11:49.928Z,99041.09
2023-05-18T22:14:35.876Z,99024.66
2023-05-18T22:17:21.734Z,99049.97
2023-05-18T22:20:09.503Z,98863.03
2023-05-18T22:22:55.048Z,98867.84
2023-05-18T22:25:40.707Z,99054.38
2023-05-18T22:28:26.243Z,99026.31
2023-05-18T22:31:11.908Z,99038.16
2023-05-18T22:33:57.387Z,99009.84
2023-05-18T22:36:42.945Z,99058.44
2023-05-18T22:39:28.323Z,98972.38
2023-05-18T22:42:13.739Z,99021.88
2023-05-18T22:44:59.085Z,98859.75
2023-05-18T22:47:45.309Z,98995.81
2023-05-18T22:50:31.200Z,99053.28
2023-05-18T22:53:16.663Z,98864.34
2023-05-18T22:56:02.385Z,98865.28
2023-05-18T22:58:48.074Z,98861.03
2023-05-18T23:01:33.446Z,99027.78
2023-05-18T23:04:19.674Z,98998.22
2023-05-18T23:07:05.489Z,99010.03
2023-05-18T23:09:52.318Z,98997.47
2023-05-18T23:12:38.600Z,99030.56
2023-05-18T23:15:24.318Z,99021.31
2023-05-18T23:18:10.182Z,99020.41
2023-05-18T23:20:55.784Z,99020.03
2023-05-18T23:23:41.589Z,99023.34
2023-05-18T23:26:27.642Z,98933.22
2023-05-18T23:29:13.043Z,98857.53
2023-05-18T23:31:58.414Z,99037.59
2023-05-18T23:34:44.430Z,98842.03
2023-05-18T23:37:32.404Z,98887.06
2023-05-18T23:40:19.391Z,98859.38
2023-05-18T23:43:05.018Z,98868.97
2023-05-18T23:45:51.156Z,98944.69
2023-05-18T23:48:36.725Z,99004.34
2023-05-18T23:51:22.722Z,98829.13
2023-05-18T23:54:09.448Z,99028.16
2023-05-18T23:56:59.610Z,99026.69
2023-05-18T23:59:45.671Z,98914.38
